createdAt,value
2024-04-01T00:01:18.359Z,38.20
2024-04-01T00:03:59.064Z,38.40
2024-04-01T00:06:31.530Z,47.50
2024-04-01T00:09:03.950Z,42.10
2024-04-01T00:11:36.256Z,51.20
2024-04-01T00:14:10.707Z,46.20
2024-04-01T00:16:44.392Z,62.30
2024-04-01T00:19:16.721Z,49.20
2024-04-01T00:21:49.023Z,58.40
2024-04-01T00:24:21.897Z,48.20
2024-04-01T00:26:54.187Z,51.00
2024-04-01T00:29:26.458Z,31.00
2024-04-01T00:31:58.683Z,33.00
2024-04-01T00:34:33.456Z,58.80
2024-04-01T00:37:06.327Z,36.90
2024-04-01T00:39:38.685Z,36.30
2024-04-01T00:42:11.031Z,46.60
2024-04-01T00:44:45.777Z,52.50
2024-04-01T00:47:18.189Z,40.20
2024-04-01T00:49:50.759Z,46.30
2024-04-01T00:52:23.447Z,41.40
2024-04-01T00:54:56.568Z,39.00
2024-04-01T00:57:29.287Z,34.40
2024-04-01T01:00:01.801Z,40.50
2024-04-01T01:02:34.375Z,50.10
2024-04-01T01:05:08.267Z,48.80
2024-04-01T01:07:40.964Z,26.90
2024-04-01T01:10:13.811Z,39.40
2024-04-01T01:12:46.421Z,44.60
2024-04-01T01:15:21.334Z,31.40
2024-04-01T01:17:53.780Z,44.00
2024-04-01T01:20:26.681Z,51.50
2024-04-01T01:22:58.986Z,38.30
2024-04-01T01:25:31.406Z,41.30
2024-04-01T01:28:03.692Z,52.80
2024-04-01T01:30:36.834Z,45.80
2024-04-01T01:33:10.949Z,42.30
2024-04-01T01:35:45.800Z,31.90
2024-04-01T01:38:19.574Z,38.70
2024-04-01T01:40:53.526Z,40.50
2024-04-01T01:43:25.867Z,24.50
2024-04-01T01:45:58.199Z,33.40
2024-04-01T01:48:31.059Z,25.10
2024-04-01T01:51:03.422Z,30.10
2024-04-01T01:53:35.997Z,36.50
2024-04-01T01:56:09.160Z,31.70
2024-04-01T01:58:41.378Z,27.60
2024-04-01T02:01:13.609Z,33.30
2024-04-01T02:03:46.510Z,43.50
2024-04-01T02:06:19.371Z,31.80
2024-04-01T02:08:51.796Z,29.40
2024-04-01T02:11:26.753Z,32.90
2024-04-01T02:13:58.988Z,41.60
2024-04-01T02:16:31.324Z,22.40
2024-04-01T02:19:03.597Z,28.80
2024-04-01T02:21:35.942Z,38.80
2024-04-01T02:24:08.847Z,35.60
2024-04-01T02:26:41.224Z,33.70
2024-04-01T02:29:13.506Z,35.20
2024-04-01T02:31:45.984Z,30.50
2024-04-01T02:34:18.460Z,35.60
2024-04-01T02:36:50.645Z,34.70
2024-04-01T02:39:22.914Z,31.10
2024-04-01T02:41:55.766Z,41.80
2024-04-01T02:44:28.137Z,32.20
2024-04-01T02:47:00.393Z,40.90
2024-04-01T02:49:32.744Z,32.40
2024-04-01T02:52:05.686Z,30.00
2024-04-01T02:54:38.071Z,25.60
2024-04-01T02:57:12.831Z,33.20
2024-04-01T02:59:48.183Z,28.00
2024-04-01T03:02:20.494Z,25.80
2024-04-01T03:04:54.912Z,22.30
2024-04-01T03:07:27.373Z,20.90
2024-04-01T03:10:00.787Z,25.30
2024-04-01T03:12:33.171Z,25.20
2024-04-01T03:15:06.114Z,18.80
2024-04-01T03:17:41.091Z,22.20
2024-04-01T03:20:14.815Z,27.70
2024-04-01T03:22:47.067Z,17.80
2024-04-01T03:25:19.923Z,26.40
2024-04-01T03:27:52.301Z,19.40
2024-04-01T03:30:24.711Z,17.90
2024-04-01T03:32:59.644Z,21.60
2024-04-01T03:35:31.937Z,18.60
2024-04-01T03:38:04.242Z,21.30
2024-04-01T03:40:41.201Z,36.40
2024-04-01T03:43:13.650Z,27.70
2024-04-01T03:45:46.207Z,22.10
2024-04-01T03:48:18.492Z,20.20
2024-04-01T03:50:51.483Z,19.90
2024-04-01T03:53:23.967Z,30.90
2024-04-01T03:55:56.275Z,32.30
2024-04-01T03:58:28.538Z,25.70
2024-04-01T04:01:00.785Z,21.80
2024-04-01T04:03:33.126Z,25.20
2024-04-01T04:06:05.972Z,24.20
2024-04-01T04:08:38.535Z,28.50
2024-04-01T04:11:12.569Z,25.20
2024-04-01T04:13:47.728Z,32.20
2024-04-01T04:16:20.039Z,27.90
2024-04-01T04:18:54.759Z,24.10
2024-04-01T04:21:27.164Z,20.00
2024-04-01T04:23:59.404Z,26.20
2024-04-01T04:26:32.904Z,27.60
2024-04-01T04:29:05.378Z,28.60
2024-04-01T04:31:37.946Z,29.90
2024-04-01T04:34:11.794Z,28.80
2024-04-01T04:36:44.110Z,28.00
2024-04-01T04:39:25.332Z,18.20
2024-04-01T04:41:58.884Z,24.90
2024-04-01T04:44:31.668Z,18.90
2024-04-01T04:47:03.980Z,21.70
2024-04-01T04:49:36.252Z,22.90
2024-04-01T04:52:09.177Z,21.70
2024-04-01T04:54:42.454Z,22.30
2024-04-01T04:57:15.201Z,20.40
2024-04-01T04:59:49.324Z,19.50
2024-04-01T05:02:21.711Z,19.40
2024-04-01T05:04:53.984Z,26.60
2024-04-01T05:07:26.300Z,23.70
2024-04-01T05:09:58.518Z,25.30
2024-04-01T05:12:31.351Z,21.40
2024-04-01T05:15:06.890Z,23.90
2024-04-01T05:17:39.478Z,20.30
2024-04-01T05:20:15.074Z,21.60
2024-04-01T05:22:49.647Z,19.10
2024-04-01T05:25:25.578Z,19.70
2024-04-01T05:28:00.176Z,18.00
2024-04-01T05:30:32.560Z,18.80
2024-04-01T05:33:05.075Z,24.20
2024-04-01T05:35:38.630Z,23.30
2024-04-01T05:38:10.993Z,34.50
2024-04-01T05:40:43.430Z,26.30
2024-04-01T05:43:15.849Z,23.60
2024-04-01T05:45:50.969Z,17.70
2024-04-01T05:48:23.401Z,17.80
2024-04-01T05:50:56.036Z,17.60
2024-04-01T05:53:28.357Z,17.10
2024-04-01T05:56:04.305Z,26.50
2024-04-01T05:58:36.931Z,26.50
2024-04-01T06:01:09.373Z,24.10
2024-04-01T06:03:41.681Z,26.60
2024-04-01T06:06:14.173Z,25.80
2024-04-01T06:08:47.034Z,16.30
2024-04-01T06:11:19.409Z,23.10
2024-04-01T06:13:51.809Z,35.50
2024-04-01T06:16:24.129Z,25.60
2024-04-01T06:18:56.408Z,22.80
2024-04-01T06:21:32.486Z,24.00
2024-04-01T06:24:05.226Z,25.60
2024-04-01T06:26:38.055Z,17.50
2024-04-01T06:29:10.369Z,22.20
2024-04-01T06:31:43.272Z,21.90
2024-04-01T06:34:15.612Z,22.90
2024-04-01T06:36:48.112Z,28.70
2024-04-01T06:39:21.200Z,25.90
2024-04-01T06:41:56.183Z,24.60
2024-04-01T06:44:28.549Z,36.90
2024-04-01T06:47:00.973Z,18.00
2024-04-01T06:49:33.368Z,19.60
2024-04-01T06:52:06.391Z,25.00
2024-04-01T06:54:41.312Z,20.30
2024-04-01T06:57:16.860Z,19.20
2024-04-01T06:59:49.267Z,33.70
2024-04-01T07:02:21.656Z,28.80
2024-04-01T07:04:53.991Z,21.40
2024-04-01T07:07:26.359Z,19.20
2024-04-01T07:09:59.034Z,18.20
2024-04-01T07:12:32.253Z,21.50
2024-04-01T07:15:04.682Z,26.50
2024-04-01T07:17:37.001Z,26.30
2024-04-01T07:20:10.534Z,59.30
2024-04-01T07:22:43.051Z,27.70
2024-04-01T07:25:15.380Z,31.30
2024-04-01T07:27:48.115Z,28.50
2024-04-01T07:30:20.540Z,18.40
2024-04-01T07:32:54.999Z,36.10
2024-04-01T07:35:27.519Z,24.80
2024-04-01T07:37:59.899Z,22.70
2024-04-01T07:40:32.451Z,27.60
2024-04-01T07:43:04.818Z,24.50
2024-04-01T07:45:37.075Z,22.20
2024-04-01T07:48:13.914Z,27.50
2024-04-01T07:50:46.146Z,26.40
2024-04-01T07:53:20.270Z,26.20
2024-04-01T07:55:53.608Z,26.00
2024-04-01T07:58:26.838Z,25.00
2024-04-01T08:01:00.313Z,27.10
2024-04-01T08:03:32.795Z,29.50
2024-04-01T08:06:05.173Z,28.70
2024-04-01T08:08:37.391Z,21.50
2024-04-01T08:11:12.265Z,30.30
2024-04-01T08:13:44.541Z,29.10
2024-04-01T08:16:16.953Z,24.80
2024-04-01T08:18:49.186Z,28.40
2024-04-01T08:21:21.920Z,23.00
2024-04-01T08:23:54.442Z,23.30
2024-04-01T08:26:26.870Z,25.30
2024-04-01T08:28:59.187Z,25.20
2024-04-01T08:31:31.581Z,24.10
2024-04-01T08:34:06.507Z,27.10
2024-04-01T08:36:38.843Z,23.90
2024-04-01T08:39:13.388Z,24.20
2024-04-01T08:41:55.946Z,25.40
2024-04-01T08:44:30.792Z,21.40
2024-04-01T08:47:05.170Z,32.40
2024-04-01T08:49:47.217Z,27.20
2024-04-01T08:52:24.139Z,21.30
2024-04-01T08:54:57.000Z,34.90
2024-04-01T08:57:30.040Z,24.70
2024-04-01T09:00:04.025Z,34.30
2024-04-01T09:02:36.346Z,29.30
2024-04-01T09:05:09.656Z,32.90
2024-04-01T09:07:44.307Z,34.90
2024-04-01T09:10:20.887Z,34.40
2024-04-01T09:12:56.367Z,50.50
2024-04-01T09:15:29.292Z,38.30
2024-04-01T09:18:05.388Z,36.30
2024-04-01T09:20:38.016Z,42.10
2024-04-01T09:23:11.255Z,34.90
2024-04-01T09:25:43.769Z,38.40
2024-04-01T09:28:17.074Z,43.50
2024-04-01T09:30:49.610Z,45.10
2024-04-01T09:33:22.076Z,34.10
2024-04-01T09:35:55.400Z,37.90
2024-04-01T09:38:27.699Z,44.90
2024-04-01T09:41:02.051Z,43.40
2024-04-01T09:43:45.845Z,40.50
2024-04-01T09:46:24.652Z,35.10
2024-04-01T09:48:59.888Z,44.50
2024-04-01T09:51:32.491Z,39.00
2024-04-01T09:54:04.820Z,45.90
2024-04-01T09:57:36.388Z,43.70
2024-04-01T10:00:35.556Z,48.30
2024-04-01T10:04:04.725Z,37.50
2024-04-01T10:07:31.825Z,41.20
2024-04-01T10:10:33.541Z,39.30
2024-04-01T10:13:41.846Z,47.10
2024-04-01T10:16:30.666Z,50.10
2024-04-01T10:19:52.107Z,41.70
2024-04-01T10:23:24.274Z,44.20
2024-04-01T10:26:46.054Z,41.80
2024-04-01T10:30:07.957Z,46.20
2024-04-01T10:33:42.964Z,45.00
2024-04-01T10:36:31.334Z,47.70
2024-04-01T10:39:51.957Z,48.00
2024-04-01T10:43:06.621Z,66.30
2024-04-01T10:46:36.235Z,45.30
2024-04-01T10:52:46.770Z,39.80
2024-04-01T10:55:52.294Z,47.60
2024-04-01T10:58:51.530Z,48.10
2024-04-01T11:02:04.630Z,48.10
2024-04-01T11:05:02.806Z,46.10
2024-04-01T11:07:56.076Z,38.80
2024-04-01T11:10:35.540Z,37.70
2024-04-01T11:13:16.276Z,30.70
2024-04-01T11:15:52.326Z,44.50
2024-04-01T11:18:47.797Z,44.30
2024-04-01T11:21:32.861Z,42.40
2024-04-01T11:24:23.100Z,45.10
2024-04-01T11:27:32.235Z,48.20
2024-04-01T11:30:26.764Z,43.00
2024-04-01T11:33:08.921Z,45.20
2024-04-01T11:35:54.918Z,43.00
2024-04-01T11:38:54.321Z,37.30
2024-04-01T11:41:29.463Z,33.10
2024-04-01T11:44:02.670Z,38.80
2024-04-01T11:46:38.435Z,37.50
2024-04-01T11:49:10.805Z,45.60
2024-04-01T11:51:43.476Z,35.70
2024-04-01T11:54:29.725Z,48.80
2024-04-01T11:57:02.007Z,42.30
2024-04-01T11:59:37.467Z,38.50
2024-04-01T12:02:19.672Z,50.10
2024-04-01T12:05:02.035Z,41.80
2024-04-01T12:07:35.485Z,43.90
2024-04-01T12:10:15.308Z,50.10
2024-04-01T12:12:49.276Z,43.80
2024-04-01T12:15:26.548Z,40.40
2024-04-01T12:17:58.868Z,44.20
2024-04-01T12:20:39.408Z,38.70
2024-04-01T12:23:13.282Z,33.30
2024-04-01T12:25:45.641Z,37.60
2024-04-01T12:28:19.240Z,35.80
2024-04-01T12:30:59.697Z,33.10
2024-04-01T12:33:37.932Z,33.60
2024-04-01T12:36:14.800Z,42.50
2024-04-01T12:38:51.226Z,40.30
2024-04-01T12:41:28.721Z,37.00
2024-04-01T12:44:02.023Z,34.60
2024-04-01T12:46:36.750Z,33.10
2024-04-01T12:49:18.426Z,38.00
2024-04-01T12:51:51.946Z,38.90
2024-04-01T12:54:55.808Z,34.70
2024-04-01T12:58:05.624Z,30.20
2024-04-01T13:00:45.401Z,27.70
2024-04-01T13:03:50.490Z,28.60
2024-04-01T13:06:49.439Z,43.40
2024-04-01T13:09:29.085Z,48.20
2024-04-01T13:12:15.917Z,52.30
2024-04-01T13:15:12.942Z,49.60
2024-04-01T13:18:12.051Z,43.80
2024-04-01T13:21:00.029Z,38.80
2024-04-01T13:23:36.837Z,49.70
2024-04-01T13:26:18.014Z,37.40
2024-04-01T13:28:58.431Z,33.90
2024-04-01T13:31:40.580Z,46.70
2024-04-01T13:34:30.617Z,40.40
2024-04-01T13:40:12.066Z,68.70
2024-04-01T13:43:05.806Z,35.10
2024-04-01T13:45:53.727Z,38.40
2024-04-01T13:48:52.637Z,37.40
2024-04-01T13:51:38.308Z,32.40
2024-04-01T13:54:23.279Z,32.90
2024-04-01T13:57:32.169Z,34.80
2024-04-01T14:00:14.575Z,31.10
2024-04-01T14:03:02.203Z,47.60
2024-04-01T14:06:11.017Z,38.90
2024-04-01T14:08:51.671Z,53.60
2024-04-01T14:11:40.379Z,41.80
2024-04-01T14:14:23.926Z,37.70
2024-04-01T14:17:04.604Z,36.20
2024-04-01T14:19:51.355Z,30.30
2024-04-01T14:22:26.633Z,37.10
2024-04-01T14:25:04.352Z,38.60
2024-04-01T14:27:36.860Z,35.40
2024-04-01T14:30:11.721Z,34.20
2024-04-01T14:32:45.406Z,43.70
2024-04-01T14:35:18.143Z,32.80
2024-04-01T14:37:54.177Z,34.40
2024-04-01T14:40:26.987Z,25.90
2024-04-01T14:42:59.779Z,34.60
2024-04-01T14:45:33.390Z,39.10
2024-04-01T14:48:06.549Z,42.80
2024-04-01T14:50:39.221Z,37.00
2024-04-01T14:53:12.784Z,36.20
2024-04-01T14:55:46.173Z,25.90
2024-04-01T14:58:20.837Z,30.30
2024-04-01T15:00:56.184Z,35.20
2024-04-01T15:03:31.179Z,39.10
2024-04-01T15:06:04.256Z,33.50
2024-04-01T15:08:39.964Z,37.20
2024-04-01T15:11:12.433Z,42.60
2024-04-01T15:13:47.794Z,42.70
2024-04-01T15:16:20.487Z,52.20
2024-04-01T15:18:54.081Z,28.70
2024-04-01T15:21:28.194Z,44.10
2024-04-01T15:24:00.980Z,42.20
2024-04-01T15:26:34.590Z,39.40
2024-04-01T15:29:07.118Z,45.90
2024-04-01T15:31:40.705Z,40.30
2024-04-01T15:34:16.014Z,45.40
2024-04-01T15:36:49.012Z,46.90
2024-04-01T15:39:23.984Z,40.00
2024-04-01T15:41:57.021Z,44.30
2024-04-01T15:44:35.785Z,32.40
2024-04-01T15:47:09.204Z,36.00
2024-04-01T15:49:44.177Z,30.50
2024-04-01T15:52:18.712Z,35.10
2024-04-01T15:54:51.384Z,38.60
2024-04-01T15:57:25.348Z,36.80
2024-04-01T16:00:01.810Z,39.80
2024-04-01T16:02:45.465Z,49.30
2024-04-01T16:05:19.702Z,36.00
2024-04-01T16:07:52.883Z,40.50
2024-04-01T16:10:26.468Z,42.00
2024-04-01T16:13:02.028Z,38.70
2024-04-01T16:15:38.208Z,54.80
2024-04-01T16:18:15.310Z,46.90
2024-04-01T16:20:48.998Z,47.10
2024-04-01T16:23:27.152Z,51.40
2024-04-01T16:26:01.844Z,40.00
2024-04-01T16:28:35.141Z,48.10
2024-04-01T16:31:10.237Z,39.10
2024-04-01T16:33:42.765Z,30.10
2024-04-01T16:36:31.568Z,19.50
2024-04-01T16:39:10.827Z,24.10
2024-04-01T16:41:44.942Z,18.90
2024-04-01T16:44:17.345Z,21.60
2024-04-01T16:46:49.682Z,18.00
2024-04-01T16:49:22.380Z,18.00
2024-04-01T16:51:54.869Z,13.50
2024-04-01T16:54:27.775Z,12.80
2024-04-01T16:57:00.152Z,8.20
2024-04-01T16:59:35.898Z,12.90
2024-04-01T17:02:11.563Z,11.40
2024-04-01T17:04:45.405Z,11.10
2024-04-01T17:07:17.846Z,10.90
2024-04-01T17:09:52.387Z,10.50
2024-04-01T17:12:24.707Z,13.70
2024-04-01T17:14:57.197Z,14.10
2024-04-01T17:17:29.827Z,11.60
2024-04-01T17:20:06.099Z,9.70
2024-04-01T17:22:41.064Z,15.70
2024-04-01T17:25:19.027Z,8.90
2024-04-01T17:27:52.664Z,13.50
2024-04-01T17:30:25.277Z,13.80
2024-04-01T17:32:58.039Z,11.00
2024-04-01T17:35:30.923Z,11.70
2024-04-01T17:38:05.086Z,15.90
2024-04-01T17:40:38.664Z,9.20
2024-04-01T17:43:11.150Z,13.90
2024-04-01T17:45:43.913Z,10.10
2024-04-01T17:48:16.319Z,11.50
2024-04-01T17:50:49.087Z,9.20
2024-04-01T17:53:23.169Z,12.90
2024-04-01T17:55:57.623Z,8.10
2024-04-01T17:58:31.086Z,6.90
2024-04-01T18:01:04.120Z,7.00
2024-04-01T18:03:36.643Z,7.20
2024-04-01T18:06:10.636Z,11.30
2024-04-01T18:08:43.101Z,14.00
2024-04-01T18:11:19.688Z,8.20
2024-04-01T18:13:52.152Z,14.80
2024-04-01T18:16:24.895Z,9.70
2024-04-01T18:18:57.676Z,14.80
2024-04-01T18:21:30.324Z,7.10
2024-04-01T18:24:05.657Z,9.40
2024-04-01T18:26:38.341Z,8.80
2024-04-01T18:29:10.873Z,8.60
2024-04-01T18:31:47.122Z,5.20
2024-04-01T18:34:25.531Z,7.00
2024-04-01T18:37:15.510Z,6.10
2024-04-01T18:39:56.864Z,7.50
2024-04-01T18:42:35.887Z,11.60
2024-04-01T18:45:10.116Z,5.90
2024-04-01T18:47:45.192Z,7.90
2024-04-01T18:50:29.994Z,7.00
2024-04-01T18:53:03.995Z,4.00
2024-04-01T18:55:36.748Z,6.30
2024-04-01T18:58:11.686Z,6.80
2024-04-01T19:00:44.075Z,7.50
2024-04-01T19:03:16.442Z,7.20
2024-04-01T19:05:48.688Z,10.30
2024-04-01T19:08:20.953Z,9.60
2024-04-01T19:10:53.262Z,8.20
2024-04-01T19:13:26.375Z,9.50
2024-04-01T19:15:58.590Z,6.00
2024-04-01T19:18:30.897Z,8.20
2024-04-01T19:21:03.236Z,10.30
2024-04-01T19:23:35.492Z,7.00
2024-04-01T19:26:07.895Z,7.90
2024-04-01T19:28:41.888Z,7.90
2024-04-01T19:31:14.904Z,12.70
2024-04-01T19:33:51.442Z,9.20
2024-04-01T19:36:23.978Z,8.40
2024-04-01T19:38:57.396Z,9.40
2024-04-01T19:41:29.920Z,8.60
2024-04-01T19:44:02.320Z,12.10
2024-04-01T19:46:35.205Z,7.90
2024-04-01T19:49:08.133Z,8.10
2024-04-01T19:51:40.887Z,8.90
2024-04-01T19:54:16.216Z,8.90
2024-04-01T19:56:49.055Z,9.70
2024-04-01T19:59:24.193Z,11.30
2024-04-01T20:01:57.677Z,8.90
2024-04-01T20:04:30.045Z,8.60
2024-04-01T20:07:03.381Z,7.40
2024-04-01T20:09:36.078Z,10.80
2024-04-01T20:12:11.576Z,8.40
2024-04-01T20:14:45.042Z,6.00
2024-04-01T20:17:18.513Z,6.60
2024-04-01T20:19:51.067Z,8.90
2024-04-01T20:22:25.702Z,10.10
2024-04-01T20:24:58.170Z,8.10
2024-04-01T20:27:33.022Z,4.70
2024-04-01T20:30:07.554Z,7.10
2024-04-01T20:32:40.291Z,4.20
2024-04-01T20:35:12.802Z,4.70
2024-04-01T20:37:45.610Z,9.70
2024-04-01T20:40:20.174Z,7.70
2024-04-01T20:42:52.549Z,7.80
2024-04-01T20:45:29.391Z,7.00
2024-04-01T20:48:02.264Z,5.60
2024-04-01T20:50:35.142Z,5.10
2024-04-01T20:53:27.947Z,6.10
2024-04-01T20:56:02.084Z,3.20
2024-04-01T20:58:35.181Z,1.80
2024-04-01T21:01:09.132Z,2.90
2024-04-01T21:03:41.825Z,3.30
2024-04-01T21:06:20.470Z,2.90
2024-04-01T21:08:53.886Z,4.50
2024-04-01T21:11:26.322Z,6.00
2024-04-01T21:13:58.602Z,1.80
2024-04-01T21:16:30.909Z,3.30
2024-04-01T21:19:03.189Z,2.50
2024-04-01T21:21:35.497Z,4.70
2024-04-01T21:24:09.417Z,3.60
2024-04-01T21:26:41.727Z,2.50
2024-04-01T21:29:14.061Z,1.80
2024-04-01T21:31:46.335Z,4.20
2024-04-01T21:34:18.732Z,2.10
2024-04-01T21:36:51.024Z,4.90
2024-04-01T21:39:23.242Z,4.10
2024-04-01T21:41:55.583Z,3.10
2024-04-01T21:44:27.814Z,6.20
2024-04-01T21:47:00.222Z,4.50
2024-04-01T21:49:32.635Z,3.90
2024-04-01T21:52:05.111Z,2.00
2024-04-01T21:54:37.435Z,2.80
2024-04-01T21:57:09.893Z,7.40
2024-04-01T21:59:42.207Z,4.70
2024-04-01T22:02:14.789Z,6.00
2024-04-01T22:04:47.106Z,2.90
2024-04-01T22:07:20.789Z,6.40
2024-04-01T22:09:53.264Z,2.90
2024-04-01T22:12:25.627Z,2.50
2024-04-01T22:14:57.980Z,4.10
2024-04-01T22:17:30.314Z,2.90
2024-04-01T22:20:03.118Z,9.40
2024-04-01T22:22:36.347Z,4.90
2024-04-01T22:25:11.016Z,5.50
2024-04-01T22:27:43.418Z,4.50
2024-04-01T22:30:16.829Z,8.80
2024-04-01T22:32:49.418Z,3.80
2024-04-01T22:35:21.884Z,4.10
2024-04-01T22:37:54.305Z,3.90
2024-04-01T22:40:26.704Z,4.00
2024-04-01T22:42:59.119Z,6.40
2024-04-01T22:45:31.480Z,4.10
2024-04-01T22:48:04.145Z,2.50
2024-04-01T22:50:36.685Z,4.40
2024-04-01T22:53:10.133Z,5.70
2024-04-01T22:55:42.473Z,3.20
2024-04-01T22:58:14.821Z,5.20
2024-04-01T23:00:47.124Z,5.20
2024-04-01T23:03:19.531Z,2.10
2024-04-01T23:05:52.051Z,2.30
2024-04-01T23:08:24.481Z,8.20
2024-04-01T23:10:56.822Z,2.50
2024-04-01T23:13:29.146Z,2.60
2024-04-01T23:16:01.509Z,4.50
2024-04-01T23:18:33.822Z,4.00
2024-04-01T23:21:14.501Z,8.40
2024-04-01T23:23:47.187Z,4.80
2024-04-01T23:26:19.526Z,3.00
2024-04-01T23:28:54.591Z,6.00
2024-04-01T23:31:26.965Z,5.60
2024-04-01T23:33:59.260Z,3.00
2024-04-01T23:36:31.659Z,3.00
2024-04-01T23:39:04.076Z,6.10
2024-04-01T23:41:36.430Z,7.80
2024-04-01T23:44:08.946Z,3.90
2024-04-01T23:46:41.339Z,2.20
2024-04-01T23:49:13.638Z,3.20
2024-04-01T23:51:45.982Z,3.80
2024-04-01T23:54:18.350Z,4.30
2024-04-01T23:56:50.716Z,4.60
2024-04-01T23:59:23.141Z,3.30
